AIRPORT_AIRPORT_METAR
METAR FOR ESOK
ADDS - METARS form results

(0659 UTC 08 May 2021)
Data provider http://aviationweather.gov/metar/data/
 
METAR text: ESOK 080650Z AUTO VRB03KT 9999 BKN009/// 06/03 Q1009
Conditions at: ESOK (KARLSTAD NORTH , SE) observed 0650 UTC 08 May 2021
Temperature: 6.0°C (43°F)
Dewpoint: 3.0°C (37°F) [RH = 81%]
Pressure (altimeter): 29.79 inches Hg (1009.0 mb)
Winds: variable direction winds at 3 MPH (3 knots; 1.5 m/s)
Visibility: 6 or more miles (10+ km)
Ceiling: 900 feet AGL
Clouds: broken clouds at 900 feet AGL
Weather: no significant weather observed at this time

METAR text: ESOK 080620Z AUTO 00000KT 9999 FEW009/// 05/03 Q1009
Conditions at: ESOK (KARLSTAD NORTH , SE) observed 0620 UTC 08 May 2021
Temperature: 5.0°C (41°F)
Dewpoint: 3.0°C (37°F) [RH = 87%]
Pressure (altimeter): 29.79 inches Hg (1009.0 mb)
Winds: calm
Visibility: 6 or more miles (10+ km)
Ceiling: at least 12,000 feet AGL
Clouds: few clouds at 900 feet AGL
Weather: no significant weather observed at this time

 AIRPORT_AIRPORT_MAP

 AIRPORT_RUNWAY_INFO
AIRPORT_RUNWAY 03 AIRPORT_RUNWAY_LENGTH 8255 ft AIRPORT_RUNWAY_WIDTH 148 ft
AIRPORT_RUNWAY_ELEVATION 332 ft AIRPORT_RUNWAY_THRESHOLD 0 ft AIRPORT_RUNWAY_HEADING 26
AIRPORT_RUNWAY 21 AIRPORT_RUNWAY_LENGTH 8255 ft AIRPORT_RUNWAY_WIDTH 148 ft
AIRPORT_RUNWAY_ELEVATION 352 ft AIRPORT_RUNWAY_THRESHOLD 0 ft AIRPORT_RUNWAY_HEADING 206
AIRPORT_RUNWAY 03L AIRPORT_RUNWAY_LENGTH 1840 ft AIRPORT_RUNWAY_WIDTH 170 ft
AIRPORT_RUNWAY_ELEVATION 0 ft AIRPORT_RUNWAY_THRESHOLD 0 ft AIRPORT_RUNWAY_HEADING 26
AIRPORT_RUNWAY 21R AIRPORT_RUNWAY_LENGTH 1840 ft AIRPORT_RUNWAY_WIDTH 170 ft
AIRPORT_RUNWAY_ELEVATION 0 ft AIRPORT_RUNWAY_THRESHOLD 0 ft AIRPORT_RUNWAY_HEADING 206

 AIRPORT_AIRPORT_FREQUENCIES
AIRPORT_AIRPORT_NAVAIDS_TYPE TWR AIRPORT_AIRPORT_NAVAIDS_NAME TWR AIRPORT_AIRPORT_NAVAIDS_FREQ 119.45 MHZ

 AIRPORT_AIRPORT_NAVAIDS
AIRPORT_AIRPORT_NAVAIDS_TYPE VOR-DME AIRPORT_AIRPORT_NAVAIDS_NAME Karlstad AIRPORT_AIRPORT_NAVAIDS_FREQ 117800 KHZ



Copyright © 2005-2020 - Virtuel Air Alsace - Tous droits réservés